Time;durP1;ratioP1;P1;durP2;ratioP2;P2;SDS_P1;SDS_P2;PMS_P1;PMS_P2;Temp;Humidity;BMP_temperature;BMP_pressure;BME280_temperature;BME280_humidity;BME280_pressure;Samples;Min_cycle;Max_cycle;Signal;HPM_P1;HPM_P2
2022/12/27 00:02:17;;;;;;;1.00;0.55;;;6.40;99.90;;;;;;5012854;28;20836;-62
2022/12/27 00:04:44;;;;;;;;;;;6.40;99.90;;;;;;5011078;28;20052;-62
2022/12/27 00:07:11;;;;;;;2.67;0.50;;;6.40;99.90;;;;;;5025722;28;20019;-62
2022/12/27 00:09:37;;;;;;;0.70;0.70;;;6.40;99.90;;;;;;5013090;28;20467;-63
2022/12/27 00:12:04;;;;;;;0.70;0.47;;;6.40;99.90;;;;;;5011725;28;20057;-62
2022/12/27 00:14:31;;;;;;;0.95;0.70;;;6.40;99.90;;;;;;5013367;28;20057;-62
2022/12/27 00:16:58;;;;;;;1.13;0.93;;;6.50;99.90;;;;;;5009847;28;20049;-62
2022/12/27 00:19:24;;;;;;;;;;;6.50;99.90;;;;;;5010951;28;20127;-62
2022/12/27 00:21:51;;;;;;;3.90;1.00;;;6.50;99.90;;;;;;5012694;28;19924;-62
2022/12/27 00:24:18;;;;;;;1.60;0.90;;;6.50;99.90;;;;;;5011415;28;20049;-62
2022/12/27 00:26:45;;;;;;;;;;;6.50;99.90;;;;;;5011690;28;20073;-62
2022/12/27 00:29:11;;;;;;;2.45;1.05;;;6.50;99.90;;;;;;5008686;28;20004;-62
2022/12/27 00:31:38;;;;;;;1.88;1.02;;;6.50;99.90;;;;;;5010778;28;20586;-63
2022/12/27 00:34:06;;;;;;;1.38;0.80;;;6.40;99.90;;;;;;5013464;28;20048;-62
2022/12/27 00:36:33;;;;;;;1.88;1.20;;;6.50;99.90;;;;;;5013939;28;20056;-62
2022/12/27 00:39:00;;;;;;;1.85;1.10;;;6.50;99.90;;;;;;5011411;28;20065;-62
2022/12/27 00:41:28;;;;;;;1.17;0.93;;;6.50;99.90;;;;;;5009103;28;21078;-63
2022/12/27 00:43:55;;;;;;;2.40;0.70;;;6.50;99.90;;;;;;5014709;28;20068;-61
2022/12/27 00:46:22;;;;;;;3.92;1.00;;;6.50;99.90;;;;;;5012225;28;20542;-63
2022/12/27 00:48:48;;;;;;;1.02;0.98;;;6.50;99.90;;;;;;5010623;28;20047;-63
2022/12/27 00:51:18;;;;;;;1.55;0.70;;;6.50;99.90;;;;;;5011070;28;20527;-62
2022/12/27 00:53:46;;;;;;;2.20;0.80;;;6.40;99.90;;;;;;5011186;28;20065;-62
2022/12/27 00:56:22;;;;;;;1.40;0.85;;;6.40;99.90;;;;;;5010610;28;20124;-62
2022/12/27 00:58:56;;;;;;;3.45;0.90;;;6.40;99.90;;;;;;5010229;28;20111;-62
2022/12/27 01:01:25;;;;;;;1.90;1.10;;;6.40;99.90;;;;;;5007599;28;20134;-62
2022/12/27 01:03:53;;;;;;;0.98;0.80;;;6.40;99.90;;;;;;5009928;28;20045;-62
2022/12/27 01:06:22;;;;;;;0.60;0.60;;;6.40;99.90;;;;;;5011924;28;20052;-62
2022/12/27 01:08:49;;;;;;;4.25;0.77;;;6.40;99.90;;;;;;5012222;28;20042;-62
2022/12/27 01:11:17;;;;;;;1.48;0.45;;;6.30;99.90;;;;;;5011936;28;20152;-62
2022/12/27 01:13:44;;;;;;;2.95;0.77;;;6.30;99.90;;;;;;5010430;28;20059;-67
2022/12/27 01:16:12;;;;;;;4.53;0.70;;;6.20;99.90;;;;;;5026233;28;20650;-63
2022/12/27 01:18:39;;;;;;;1.10;0.70;;;6.20;99.90;;;;;;5009315;28;20668;-64
2022/12/27 01:21:07;;;;;;;;;;;6.20;99.90;;;;;;5010617;28;20053;-61
2022/12/27 01:23:34;;;;;;;4.68;0.50;;;6.10;99.90;;;;;;5021500;28;19924;-64
2022/12/27 01:26:03;;;;;;;3.85;0.82;;;6.10;99.90;;;;;;5011147;28;20043;-62
2022/12/27 01:28:30;;;;;;;2.55;0.95;;;6.00;99.90;;;;;;5013290;28;20119;-63
2022/12/27 01:30:57;;;;;;;1.52;0.80;;;6.00;99.90;;;;;;5010355;28;20068;-63
2022/12/27 01:33:24;;;;;;;3.35;1.10;;;6.00;99.90;;;;;;5010170;28;20770;-63
2022/12/27 01:35:50;;;;;;;;;;;5.90;99.90;;;;;;5011219;28;20045;-64
2022/12/27 01:38:17;;;;;;;2.13;0.70;;;5.90;99.90;;;;;;5010499;28;19925;-63
2022/12/27 01:40:44;;;;;;;3.00;0.90;;;5.80;99.90;;;;;;5012272;28;20236;-63
2022/12/27 01:43:15;;;;;;;;;;;5.80;99.90;;;;;;5012795;28;20049;-62
2022/12/27 01:45:44;;;;;;;1.23;0.60;;;5.70;99.90;;;;;;5013771;28;19925;-63
2022/12/27 01:48:18;;;;;;;4.95;1.10;;;5.70;99.90;;;;;;5008805;28;20111;-63
2022/12/27 01:50:53;;;;;;;3.35;0.70;;;5.60;99.90;;;;;;5010859;28;20040;-63
2022/12/27 01:53:29;;;;;;;6.78;0.88;;;5.60;99.90;;;;;;5008423;28;20041;-63
2022/12/27 01:56:01;;;;;;;3.03;1.00;;;5.50;99.90;;;;;;5006965;28;20049;-63
2022/12/27 01:58:55;;;;;;;3.00;0.88;;;5.50;99.90;;;;;;5009443;28;20625;-63
2022/12/27 02:01:32;;;;;;;1.70;0.90;;;5.50;99.90;;;;;;5006646;28;20059;-64
2022/12/27 02:04:14;;;;;;;;;;;5.50;99.90;;;;;;5015284;28;20422;-63
2022/12/27 02:06:41;;;;;;;3.90;0.85;;;5.40;99.90;;;;;;5008373;28;19929;-63
2022/12/27 02:09:32;;;;;;;5.82;1.70;;;5.40;99.90;;;;;;5008044;28;20195;-65
2022/12/27 02:12:01;;;;;;;3.38;0.77;;;5.40;99.90;;;;;;5008280;28;20393;-63
2022/12/27 02:14:36;;;;;;;9.48;1.45;;;5.40;99.90;;;;;;4989942;28;20337;-63
2022/12/27 02:17:10;;;;;;;2.13;1.00;;;5.40;99.90;;;;;;5011777;28;20053;-63
2022/12/27 02:19:45;;;;;;;8.25;1.17;;;5.30;99.90;;;;;;5008991;28;20103;-63
2022/12/27 02:22:18;;;;;;;3.63;0.77;;;5.30;99.90;;;;;;5009493;28;20056;-63
2022/12/27 02:24:50;;;;;;;1.95;0.70;;;5.40;99.90;;;;;;5009070;28;20053;-63
2022/12/27 02:27:47;;;;;;;0.85;0.60;;;5.30;99.90;;;;;;5009244;28;20531;-63
2022/12/27 02:30:14;;;;;;;18.73;1.77;;;5.30;99.90;;;;;;5009992;28;20132;-63
2022/12/27 02:32:51;;;;;;;2.80;0.80;;;5.30;99.90;;;;;;5007459;28;20159;-63
2022/12/27 02:35:25;;;;;;;6.97;0.90;;;5.30;99.90;;;;;;5010419;28;20041;-63
2022/12/27 02:38:21;;;;;;;2.63;0.93;;;5.40;99.90;;;;;;5009371;28;20045;-62
2022/12/27 02:59:04;;;;;;;2.22;0.90;;;5.10;99.90;;;;;;5009343;28;20048;-63
2022/12/27 03:04:23;;;;;;;1.88;0.73;;;5.10;99.90;;;;;;5009486;28;20049;-63
2022/12/27 03:07:25;;;;;;;7.32;1.20;;;5.00;99.90;;;;;;5010748;28;20669;-63
2022/12/27 03:16:29;;;;;;;1.88;0.90;;;5.00;99.90;;;;;;5008738;28;20049;-63
2022/12/27 03:19:11;;;;;;;3.38;0.80;;;5.00;99.90;;;;;;5009984;28;20122;-61
2022/12/27 03:27:42;;;;;;;2.83;1.58;;;5.00;99.90;;;;;;4987756;28;20093;-62
2022/12/27 03:33:13;;;;;;;5.30;0.90;;;4.90;99.90;;;;;;5009650;28;20053;-62
2022/12/27 03:39:15;;;;;;;3.42;0.70;;;4.90;99.90;;;;;;4961624;28;20144;-62
2022/12/27 03:44:40;;;;;;;6.25;0.80;;;4.90;99.90;;;;;;4998643;28;20152;-62
2022/12/27 03:47:11;;;;;;;;;;;4.90;99.90;;;;;;5010774;28;20558;-62
2022/12/27 03:49:51;;;;;;;1.63;0.70;;;4.90;99.90;;;;;;5005897;28;19979;-62
2022/12/27 03:52:23;;;;;;;2.92;1.15;;;4.90;99.90;;;;;;5006100;28;20047;-63
2022/12/27 03:54:52;;;;;;;1.38;0.90;;;4.80;99.90;;;;;;5005985;28;20033;-64
2022/12/27 03:57:22;;;;;;;3.72;0.85;;;4.90;99.90;;;;;;5009654;28;20215;-62
2022/12/27 03:59:49;;;;;;;3.33;0.90;;;4.80;99.90;;;;;;5009125;28;20048;-62
2022/12/27 04:02:16;;;;;;;2.13;0.80;;;4.80;99.90;;;;;;5006607;28;20078;-63
2022/12/27 04:04:43;;;;;;;4.40;1.20;;;4.80;99.90;;;;;;5014704;28;20055;-61
2022/12/27 04:07:12;;;;;;;7.55;1.60;;;4.70;99.90;;;;;;5023238;28;20138;-62
2022/12/27 04:34:44;;;;;;;2.95;0.90;;;4.60;99.90;;;;;;5025824;28;20061;-62
2022/12/27 04:37:13;;;;;;;2.83;0.77;;;4.50;99.90;;;;;;5014793;28;20119;-62
2022/12/27 04:54:55;;;;;;;2.15;0.88;;;4.50;99.90;;;;;;5011936;28;20045;-62
2022/12/27 04:56:15;;;;;;;8.13;2.00;;;4.40;99.90;;;;;;5008052;28;20879;-63
2022/12/27 05:02:01;;;;;;;2.13;1.23;;;4.40;99.90;;;;;;5013945;28;20116;-62
2022/12/27 05:04:15;;;;;;;4.03;1.15;;;4.30;99.90;;;;;;5013387;28;20041;-62
2022/12/27 05:06:41;;;;;;;5.40;1.23;;;4.30;99.90;;;;;;5011507;28;20045;-62
2022/12/27 05:14:39;;;;;;;3.90;1.25;;;4.20;99.90;;;;;;5010573;28;20129;-62
2022/12/27 05:17:06;;;;;;;2.90;1.00;;;4.20;99.90;;;;;;5013562;28;20057;-63
2022/12/27 05:19:32;;;;;;;1.40;1.30;;;4.20;99.90;;;;;;5010520;28;20099;-63
2022/12/27 05:27:30;;;;;;;1.77;1.38;;;4.20;99.90;;;;;;5010584;28;20045;-63
2022/12/27 05:29:57;;;;;;;;;;;4.20;99.90;;;;;;5010667;28;20045;-62
2022/12/27 05:32:23;;;;;;;3.58;1.25;;;4.20;99.90;;;;;;5010945;28;19924;-62
2022/12/27 05:34:50;;;;;;;;;;;4.10;99.90;;;;;;5011420;28;20131;-63
2022/12/27 05:37:17;;;;;;;4.90;1.23;;;4.20;99.90;;;;;;5012363;28;19924;-63
2022/12/27 05:39:43;;;;;;;;;;;4.10;99.90;;;;;;5010276;28;20045;-62
2022/12/27 05:42:10;;;;;;;1.15;0.85;;;4.20;99.90;;;;;;5013680;28;19925;-63
2022/12/27 05:44:37;;;;;;;3.50;1.38;;;4.10;99.90;;;;;;5011830;28;20072;-63
2022/12/27 05:47:03;;;;;;;4.07;1.70;;;4.10;99.90;;;;;;5011427;28;20093;-62
2022/12/27 05:49:30;;;;;;;1.50;0.90;;;4.10;99.90;;;;;;5011746;28;20816;-62
2022/12/27 05:51:57;;;;;;;;;;;4.10;99.90;;;;;;5012569;28;20042;-62
2022/12/27 05:54:24;;;;;;;1.00;0.80;;;4.20;99.90;;;;;;5009609;28;19983;-62
2022/12/27 05:56:50;;;;;;;2.47;0.95;;;4.10;99.90;;;;;;5010130;28;20543;-62
2022/12/27 05:59:17;;;;;;;;;;;4.10;99.90;;;;;;5009091;28;20057;-63
2022/12/27 06:01:44;;;;;;;1.83;0.95;;;4.10;99.90;;;;;;5011138;28;20048;-62
2022/12/27 06:04:11;;;;;;;1.98;0.90;;;4.10;99.90;;;;;;5008023;28;20080;-63
2022/12/27 06:06:38;;;;;;;;;;;4.10;99.90;;;;;;5011611;28;20041;-62
2022/12/27 06:09:04;;;;;;;0.85;0.85;;;4.10;99.90;;;;;;5009396;28;19924;-63
2022/12/27 06:11:31;;;;;;;;;;;4.10;99.90;;;;;;5009235;28;20894;-61
2022/12/27 06:13:58;;;;;;;5.05;1.27;;;4.10;99.90;;;;;;5006144;28;19925;-61
2022/12/27 06:16:25;;;;;;;;;;;4.10;99.90;;;;;;5008557;28;20045;-63
2022/12/27 06:18:52;;;;;;;3.97;1.23;;;4.10;99.90;;;;;;5010066;28;19925;-61
2022/12/27 06:21:20;;;;;;;4.75;1.38;;;4.10;99.90;;;;;;5010723;28;20094;-63
2022/12/27 06:23:47;;;;;;;1.10;0.75;;;4.00;99.90;;;;;;5006273;28;20041;-62
2022/12/27 06:26:17;;;;;;;2.95;1.10;;;4.10;99.90;;;;;;5007344;28;20330;-63
2022/12/27 06:28:45;;;;;;;7.18;1.17;;;4.00;99.90;;;;;;5009136;28;20129;-62
2022/12/27 06:31:12;;;;;;;3.25;1.70;;;4.10;99.90;;;;;;5010207;28;20747;-63
2022/12/27 06:33:38;;;;;;;;;;;4.00;99.90;;;;;;5010777;28;20052;-62
2022/12/27 06:36:13;;;;;;;5.93;1.10;;;4.00;99.90;;;;;;5010593;28;19925;-63
2022/12/27 06:38:41;;;;;;;4.35;1.48;;;4.00;99.90;;;;;;5007720;28;20057;-61
2022/12/27 06:41:11;;;;;;;2.45;1.35;;;4.00;99.90;;;;;;5013393;28;20579;-61
2022/12/27 06:43:39;;;;;;;1.48;1.23;;;4.00;99.90;;;;;;5013669;28;20041;-60
2022/12/27 06:46:09;;;;;;;6.53;1.52;;;4.00;99.90;;;;;;5013017;28;20344;-61
2022/12/27 06:48:45;;;;;;;1.83;1.20;;;4.00;99.90;;;;;;5025284;28;20072;-63
2022/12/27 06:51:14;;;;;;;5.07;1.45;;;4.00;99.90;;;;;;5008424;28;20124;-64
2022/12/27 06:53:45;;;;;;;3.60;1.30;;;4.00;99.90;;;;;;5008203;28;20065;-52
2022/12/27 06:56:18;;;;;;;4.35;2.00;;;4.00;99.90;;;;;;5023882;28;20301;-53
2022/12/27 06:58:45;;;;;;;1.63;0.90;;;4.00;99.90;;;;;;5009637;28;20057;-53
2022/12/27 07:01:17;;;;;;;3.15;1.08;;;4.00;99.90;;;;;;5010711;28;20071;-52
2022/12/27 07:03:49;;;;;;;1.83;1.10;;;4.00;99.90;;;;;;5006875;28;20033;-50
2022/12/27 07:06:17;;;;;;;5.05;1.10;;;4.10;99.90;;;;;;5010881;28;20049;-51
2022/12/27 07:08:44;;;;;;;3.22;1.40;;;4.10;99.90;;;;;;5006999;28;20041;-51
2022/12/27 07:11:13;;;;;;;5.55;1.13;;;4.10;99.90;;;;;;5010428;28;20046;-52
2022/12/27 07:13:43;;;;;;;5.60;1.05;;;4.10;99.90;;;;;;5009444;28;20374;-51
2022/12/27 07:16:12;;;;;;;2.78;1.17;;;4.10;99.90;;;;;;5007927;28;20053;-50
2022/12/27 07:18:39;;;;;;;1.63;1.08;;;4.10;99.90;;;;;;5008766;28;20559;-52
2022/12/27 07:21:09;;;;;;;3.70;1.02;;;4.20;99.90;;;;;;4985962;28;20483;-52
2022/12/27 07:23:36;;;;;;;1.65;0.80;;;4.20;99.90;;;;;;5027239;28;20063;-50
2022/12/27 07:26:11;;;;;;;2.30;1.02;;;4.20;99.90;;;;;;5019305;28;20133;-51
2022/12/27 07:28:39;;;;;;;9.50;2.65;;;4.20;99.90;;;;;;5007133;28;20715;-53
2022/12/27 07:31:11;;;;;;;5.05;1.65;;;4.20;99.90;;;;;;5010166;28;20442;-50
2022/12/27 07:33:38;;;;;;;5.82;2.10;;;4.10;99.90;;;;;;5007711;28;20168;-51
2022/12/27 07:36:21;;;;;;;5.65;1.45;;;4.20;99.90;;;;;;5008940;28;20039;-58
2022/12/27 07:38:48;;;;;;;4.38;1.70;;;4.20;99.90;;;;;;5011113;28;20826;-51
2022/12/27 07:41:16;;;;;;;6.43;2.03;;;4.20;99.90;;;;;;5007956;28;20044;-51
2022/12/27 07:43:44;;;;;;;6.38;1.70;;;4.20;99.90;;;;;;5008396;28;20301;-51
2022/12/27 07:46:12;;;;;;;5.53;1.70;;;4.20;99.90;;;;;;5005761;28;20045;-50
2022/12/27 07:48:40;;;;;;;10.45;2.83;;;4.20;99.90;;;;;;5008268;28;20044;-50
2022/12/27 07:51:07;;;;;;;2.22;0.82;;;4.30;99.90;;;;;;5010764;28;20041;-53
2022/12/27 07:53:34;;;;;;;3.03;1.63;;;4.30;99.90;;;;;;5008490;28;20079;-55
2022/12/27 07:56:05;;;;;;;;;;;4.30;99.90;;;;;;5009313;28;20470;-53
2022/12/27 07:58:36;;;;;;;4.55;1.55;;;4.30;99.90;;;;;;5010018;28;20057;-52
2022/12/27 08:01:03;;;;;;;2.42;1.40;;;4.30;99.90;;;;;;5010076;28;20134;-53
2022/12/27 08:03:31;;;;;;;3.92;1.42;;;4.30;99.90;;;;;;5006444;28;20041;-53
2022/12/27 08:05:57;;;;;;;3.83;1.02;;;4.30;99.90;;;;;;5010665;28;20045;-53
2022/12/27 08:08:35;;;;;;;2.85;1.00;;;4.30;99.90;;;;;;5013293;28;20052;-53
2022/12/27 08:11:02;;;;;;;3.05;0.90;;;4.30;99.90;;;;;;5010955;28;20480;-52
2022/12/27 08:13:32;;;;;;;4.32;1.30;;;4.20;99.90;;;;;;5012998;28;20126;-53
2022/12/27 08:15:59;;;;;;;2.03;0.93;;;4.20;99.90;;;;;;5010519;28;20095;-51
2022/12/27 08:18:27;;;;;;;2.33;1.20;;;4.20;99.90;;;;;;5014886;28;20056;-51
2022/12/27 08:20:54;;;;;;;4.50;1.30;;;4.10;99.90;;;;;;5009351;28;20069;-50
2022/12/27 08:23:20;;;;;;;3.05;0.90;;;4.10;99.90;;;;;;5012257;28;20053;-52
2022/12/27 08:25:47;;;;;;;;;;;4.10;99.90;;;;;;5010854;28;20079;-50
2022/12/27 08:28:17;;;;;;;4.75;1.20;;;4.20;99.90;;;;;;5011368;28;19925;-50
2022/12/27 08:30:44;;;;;;;4.10;1.40;;;4.20;99.90;;;;;;5011491;28;20735;-53
2022/12/27 08:33:11;;;;;;;7.63;1.30;;;4.20;99.90;;;;;;5009338;28;20041;-53
2022/12/27 08:35:40;;;;;;;2.30;1.00;;;4.20;99.90;;;;;;5011448;28;20045;-52
2022/12/27 08:38:19;;;;;;;5.97;1.20;;;4.20;99.90;;;;;;5008680;28;20052;-51
2022/12/27 08:40:46;;;;;;;;;;;4.20;99.90;;;;;;5009011;28;20053;-53
2022/12/27 08:43:13;;;;;;;8.57;1.83;;;4.20;99.90;;;;;;5007867;28;20383;-52
2022/12/27 08:45:40;;;;;;;6.97;1.15;;;4.20;99.90;;;;;;5008865;28;20403;-50
2022/12/27 08:48:07;;;;;;;2.38;1.02;;;4.30;99.90;;;;;;5006411;28;20397;-50
2022/12/27 08:50:34;;;;;;;2.67;1.00;;;4.30;99.90;;;;;;5010186;28;20515;-52
2022/12/27 08:53:02;;;;;;;6.13;1.05;;;4.30;99.90;;;;;;5009131;28;20052;-52
2022/12/27 08:55:30;;;;;;;2.95;1.23;;;4.30;99.90;;;;;;5009989;28;20081;-53
2022/12/27 08:57:58;;;;;;;2.15;1.13;;;4.30;99.90;;;;;;5010136;28;20248;-53
2022/12/27 09:00:26;;;;;;;9.57;1.27;;;4.40;99.90;;;;;;5009383;28;20060;-52
2022/12/27 09:02:53;;;;;;;2.70;1.20;;;4.40;99.90;;;;;;5008852;28;20717;-51
2022/12/27 09:05:22;;;;;;;1.35;1.05;;;4.40;99.90;;;;;;5007278;28;20049;-54
2022/12/27 09:07:48;;;;;;;2.05;1.00;;;4.50;99.90;;;;;;5009275;28;20041;-51
2022/12/27 09:10:16;;;;;;;2.60;1.08;;;4.50;99.90;;;;;;5009600;28;20042;-52
2022/12/27 09:12:44;;;;;;;4.60;1.10;;;4.50;99.90;;;;;;5011308;28;20401;-53
2022/12/27 09:15:11;;;;;;;1.33;0.73;;;4.60;99.90;;;;;;5011924;28;20381;-52
2022/12/27 09:17:38;;;;;;;5.93;0.98;;;4.60;99.90;;;;;;5008815;28;20462;-53
2022/12/27 09:20:06;;;;;;;1.77;0.65;;;4.70;99.90;;;;;;5010607;28;20124;-53
2022/12/27 09:22:33;;;;;;;5.47;1.10;;;4.70;99.90;;;;;;5011090;28;20087;-54
2022/12/27 09:25:00;;;;;;;3.97;0.90;;;4.80;99.90;;;;;;5008526;28;20375;-52
2022/12/27 09:27:26;;;;;;;;;;;4.80;99.90;;;;;;5009323;28;20122;-52
2022/12/27 09:29:53;;;;;;;2.63;1.00;;;4.80;99.90;;;;;;5008888;28;20414;-52
2022/12/27 09:32:20;;;;;;;;;;;4.90;99.90;;;;;;5011639;28;20049;-50
2022/12/27 09:34:47;;;;;;;1.90;0.98;;;5.00;99.90;;;;;;5013649;28;20590;-49
2022/12/27 09:37:13;;;;;;;;;;;5.00;99.90;;;;;;5011319;28;20071;-51
2022/12/27 09:39:40;;;;;;;4.10;0.98;;;5.00;99.90;;;;;;5013239;28;19932;-52
2022/12/27 09:42:14;;;;;;;;;;;5.00;99.90;;;;;;5010345;28;20064;-52
2022/12/27 09:45:13;;;;;;;5.28;1.40;;;5.10;99.90;;;;;;5009591;28;19981;-52
2022/12/27 09:48:00;;;;;;;0.93;0.68;;;5.10;99.90;;;;;;5008132;28;20099;-52
2022/12/27 09:50:32;;;;;;;2.90;0.88;;;5.20;99.90;;;;;;5010811;28;20049;-51
2022/12/27 09:53:25;;;;;;;4.65;1.00;;;5.30;99.90;;;;;;5009574;28;20072;-49
2022/12/27 09:55:56;;;;;;;4.25;1.00;;;5.30;99.90;;;;;;5002724;28;20092;-55
2022/12/27 09:58:39;;;;;;;1.83;1.00;;;5.40;99.90;;;;;;5011979;28;20415;-52
2022/12/27 10:01:30;;;;;;;1.27;0.63;;;5.50;99.90;;;;;;5006113;28;20065;-53
2022/12/27 10:03:57;;;;;;;3.72;1.83;;;5.50;99.90;;;;;;5008787;28;20410;-54
2022/12/27 10:06:54;;;;;;;4.15;1.23;;;5.60;99.90;;;;;;5008316;28;20084;-51
2022/12/27 10:09:50;;;;;;;4.05;1.70;;;5.70;99.90;;;;;;5008852;28;20424;-53
2022/12/27 10:12:33;;;;;;;3.45;0.70;;;5.70;99.90;;;;;;5010904;28;20327;-53
2022/12/27 10:15:10;;;;;;;2.47;0.80;;;5.70;99.90;;;;;;5006665;28;20052;-53
2022/12/27 10:18:09;;;;;;;2.50;0.80;;;5.70;99.90;;;;;;5009643;28;20149;-54
2022/12/27 10:20:58;;;;;;;2.80;0.60;;;5.70;99.90;;;;;;5010081;28;20988;-53
2022/12/27 10:23:31;;;;;;;0.70;0.63;;;5.70;99.90;;;;;;5008460;28;21067;-54
2022/12/27 10:26:06;;;;;;;2.63;1.35;;;5.70;99.90;;;;;;5009182;28;20099;-52
2022/12/27 10:28:38;;;;;;;1.50;1.25;;;5.80;99.90;;;;;;5007494;28;20649;-56
2022/12/27 10:31:05;;;;;;;3.70;1.33;;;5.90;99.90;;;;;;5008425;28;20481;-53
2022/12/27 10:33:33;;;;;;;;;;;5.90;99.90;;;;;;5008274;28;20507;-51
2022/12/27 10:36:03;;;;;;;;;;;6.00;99.90;;;;;;5010808;28;20366;-50
2022/12/27 10:38:33;;;;;;;1.35;1.00;;;6.00;99.90;;;;;;5007744;28;20018;-53
2022/12/27 10:41:31;;;;;;;3.50;1.38;;;6.10;99.90;;;;;;5008917;28;20422;-53
2022/12/27 10:43:58;;;;;;;3.05;1.02;;;6.20;99.90;;;;;;5008743;28;20065;-53
2022/12/27 10:46:26;;;;;;;;;;;6.20;99.90;;;;;;5007671;28;20373;-52
2022/12/27 10:49:04;;;;;;;2.90;0.93;;;6.30;99.90;;;;;;5007586;28;19925;-53
2022/12/27 10:51:50;;;;;;;3.15;0.90;;;6.30;99.90;;;;;;5008229;28;20042;-51
2022/12/27 10:54:28;;;;;;;2.45;0.90;;;6.40;99.90;;;;;;5023961;28;20048;-52
2022/12/27 10:57:14;;;;;;;1.90;0.90;;;6.50;99.90;;;;;;5004924;28;20566;-51
2022/12/27 10:59:41;;;;;;;2.67;0.93;;;6.50;99.90;;;;;;5008435;28;20049;-52
2022/12/27 11:02:15;;;;;;;;;;;6.60;99.90;;;;;;5007682;28;20045;-52
2022/12/27 11:04:57;;;;;;;1.42;0.85;;;6.70;99.90;;;;;;5005567;28;19925;-57
2022/12/27 11:07:30;;;;;;;1.35;0.80;;;6.70;99.90;;;;;;5007720;28;20046;-51
2022/12/27 11:10:14;;;;;;;3.40;0.88;;;6.80;99.90;;;;;;5008457;28;20478;-52
2022/12/27 11:12:55;;;;;;;2.28;0.80;;;6.80;99.90;;;;;;5007708;28;20068;-53
2022/12/27 11:15:23;;;;;;;0.75;0.70;;;6.80;99.90;;;;;;5008984;28;20105;-53
2022/12/27 11:18:00;;;;;;;1.23;0.65;;;6.80;99.90;;;;;;5008898;28;20077;-53
2022/12/27 11:20:39;;;;;;;1.55;0.73;;;6.80;99.90;;;;;;5006516;28;20287;-53
2022/12/27 11:23:14;;;;;;;1.15;0.55;;;6.90;99.90;;;;;;5021881;28;20049;-52
2022/12/27 11:25:53;;;;;;;4.38;0.88;;;6.90;99.90;;;;;;5008174;28;20364;-53
2022/12/27 11:28:43;;;;;;;4.88;1.00;;;6.80;99.90;;;;;;5006846;28;20053;-53
2022/12/27 11:31:13;;;;;;;1.88;0.80;;;6.80;99.90;;;;;;5005846;28;20051;-53
2022/12/27 11:33:53;;;;;;;1.13;0.68;;;6.80;99.90;;;;;;5006017;28;20056;-52
2022/12/27 11:36:34;;;;;;;2.67;0.73;;;6.70;99.90;;;;;;5008047;28;20049;-53
2022/12/27 11:39:01;;;;;;;2.67;0.82;;;6.70;99.90;;;;;;5010187;28;20134;-53
2022/12/27 11:41:41;;;;;;;;;;;6.60;99.90;;;;;;5014077;28;20149;-53
2022/12/27 11:44:17;;;;;;;6.40;0.80;;;6.60;99.90;;;;;;5014092;28;20481;-52
2022/12/27 11:46:44;;;;;;;1.77;0.75;;;6.60;99.90;;;;;;5010760;28;20076;-52
2022/12/27 11:49:20;;;;;;;1.63;0.70;;;6.50;99.90;;;;;;5011749;28;20052;-50
2022/12/27 11:52:18;;;;;;;3.17;1.02;;;6.50;99.90;;;;;;5010713;28;20795;-53
2022/12/27 11:54:51;;;;;;;2.10;0.98;;;6.50;99.90;;;;;;5011666;28;20372;-52
2022/12/27 11:57:34;;;;;;;0.68;0.57;;;6.50;99.90;;;;;;5010807;28;20049;-51
2022/12/27 12:00:23;;;;;;;5.18;0.77;;;6.60;99.90;;;;;;5008678;28;20515;-51
2022/12/27 12:03:27;;;;;;;6.10;0.55;;;6.70;99.90;;;;;;5013801;28;20738;-52
2022/12/27 12:06:09;;;;;;;5.63;0.80;;;7.00;99.90;;;;;;5008699;28;20630;-52
2022/12/27 12:09:03;;;;;;;2.38;0.88;;;7.30;99.90;;;;;;5012073;28;20628;-53
2022/12/27 12:11:52;;;;;;;0.85;0.70;;;7.60;99.90;;;;;;5013081;28;20073;-50
2022/12/27 12:14:45;;;;;;;2.88;0.75;;;7.80;99.90;;;;;;5010032;28;20051;-52
2022/12/27 12:17:31;;;;;;;2.15;1.05;;;7.90;99.90;;;;;;5010436;28;20130;-51
2022/12/27 12:20:39;;;;;;;3.55;1.23;;;8.00;99.90;;;;;;5010890;28;20319;-52
2022/12/27 12:23:23;;;;;;;4.40;1.33;;;8.00;99.90;;;;;;5008992;28;20677;-52
2022/12/27 12:26:12;;;;;;;3.65;1.00;;;8.00;99.90;;;;;;5013797;28;20073;-53
2022/12/27 12:29:08;;;;;;;3.90;0.52;;;8.00;99.90;;;;;;5009748;28;20446;-52
2022/12/27 12:31:43;;;;;;;2.38;0.77;;;8.00;99.90;;;;;;5008873;28;20040;-50
2022/12/27 12:34:26;;;;;;;3.10;0.93;;;8.00;99.90;;;;;;5012808;28;20515;-52
2022/12/27 12:36:56;;;;;;;2.85;0.60;;;7.90;99.90;;;;;;5012591;28;20041;-50
2022/12/27 12:39:40;;;;;;;2.75;0.85;;;7.80;99.90;;;;;;5003799;28;20057;-50
2022/12/27 12:42:21;;;;;;;1.65;0.60;;;7.70;99.90;;;;;;5010829;28;20136;-52
2022/12/27 12:45:13;;;;;;;1.90;0.70;;;7.60;99.90;;;;;;5026956;28;20527;-52
2022/12/27 12:48:01;;;;;;;2.03;0.50;;;7.60;99.90;;;;;;5010425;28;20073;-53
2022/12/27 12:50:37;;;;;;;0.82;0.70;;;7.60;99.90;;;;;;5009221;28;20480;-52
2022/12/27 12:53:21;;;;;;;4.60;1.30;;;7.60;99.90;;;;;;5010139;28;20077;-52
2022/12/27 12:55:54;;;;;;;2.00;0.90;;;7.70;99.90;;;;;;5008549;28;20100;-53
2022/12/27 12:58:39;;;;;;;1.15;0.50;;;7.80;99.90;;;;;;5011212;28;20666;-51
2022/12/27 13:01:15;;;;;;;3.00;0.80;;;8.00;99.90;;;;;;5012368;28;20534;-52
2022/12/27 13:03:51;;;;;;;2.22;0.93;;;8.00;99.90;;;;;;5005917;28;20539;-53
2022/12/27 13:06:43;;;;;;;1.15;0.60;;;8.10;99.90;;;;;;5006479;28;20072;-54
2022/12/27 13:09:22;;;;;;;0.73;0.50;;;8.20;99.90;;;;;;5009704;28;20073;-54
2022/12/27 13:12:29;;;;;;;1.15;0.60;;;8.20;99.90;;;;;;5013075;28;20589;-51
2022/12/27 13:15:07;;;;;;;3.28;0.98;;;8.30;99.90;;;;;;5013611;28;20469;-54
2022/12/27 13:18:03;;;;;;;3.72;0.63;;;8.30;99.90;;;;;;5013966;28;20052;-59
2022/12/27 13:20:48;;;;;;;7.80;1.80;;;8.30;99.90;;;;;;5000969;28;20145;-55
2022/12/27 13:23:51;;;;;;;3.45;0.77;;;8.20;99.90;;;;;;5025730;28;20047;-52
2022/12/27 13:26:27;;;;;;;3.28;0.70;;;8.20;99.90;;;;;;5009479;28;20041;-52
2022/12/27 13:29:06;;;;;;;2.08;0.73;;;8.20;99.90;;;;;;5008465;28;20157;-53
2022/12/27 13:31:59;;;;;;;1.20;0.70;;;8.10;99.90;;;;;;5006511;28;20811;-57
2022/12/27 13:34:58;;;;;;;0.95;0.57;;;8.10;99.90;;;;;;5009725;28;20135;-53
2022/12/27 13:38:06;;;;;;;3.95;1.20;;;8.10;99.90;;;;;;5010708;28;20063;-53
2022/12/27 13:40:55;;;;;;;2.05;0.80;;;8.10;99.90;;;;;;5003721;28;20059;-53
2022/12/27 13:43:38;;;;;;;1.33;0.80;;;8.00;99.90;;;;;;5027786;28;20315;-55
2022/12/27 13:46:23;;;;;;;2.95;1.52;;;8.00;99.90;;;;;;5012086;28;20856;-54
2022/12/27 13:48:57;;;;;;;1.48;0.95;;;7.90;99.90;;;;;;5003244;28;20124;-56
2022/12/27 13:51:35;;;;;;;1.25;0.80;;;7.80;99.90;;;;;;5022675;28;20069;-54
2022/12/27 13:54:17;;;;;;;0.63;0.55;;;7.80;99.90;;;;;;5007664;28;20049;-54
2022/12/27 13:57:00;;;;;;;1.55;0.80;;;7.70;99.90;;;;;;5018821;28;20514;-54
2022/12/27 13:59:39;;;;;;;2.38;0.80;;;7.60;99.90;;;;;;5007639;28;20137;-55
2022/12/27 14:02:18;;;;;;;1.98;1.20;;;7.60;99.90;;;;;;5012637;28;20044;-54
2022/12/27 14:05:07;;;;;;;1.15;0.82;;;7.50;99.90;;;;;;5008389;28;20068;-53
2022/12/27 14:07:48;;;;;;;2.83;0.70;;;7.50;99.90;;;;;;5004772;28;20457;-58
2022/12/27 14:10:30;;;;;;;2.25;0.90;;;7.40;99.90;;;;;;5010107;28;20296;-55
2022/12/27 14:13:05;;;;;;;1.17;1.08;;;7.30;99.90;;;;;;5008481;28;20114;-53
2022/12/27 14:15:58;;;;;;;7.75;1.10;;;7.20;99.90;;;;;;5007251;28;20120;-53
2022/12/27 14:18:34;;;;;;;2.70;0.80;;;7.20;99.90;;;;;;5010224;28;20059;-55
2022/12/27 14:21:07;;;;;;;2.08;1.23;;;7.10;99.90;;;;;;5007446;28;20055;-54
2022/12/27 14:23:33;;;;;;;2.33;0.82;;;7.00;99.90;;;;;;5006119;28;20345;-54
2022/12/27 14:26:14;;;;;;;1.10;0.70;;;6.90;99.90;;;;;;5011513;28;20108;-55
2022/12/27 14:29:17;;;;;;;2.67;0.90;;;6.90;99.90;;;;;;5006955;28;20056;-54
2022/12/27 14:32:21;;;;;;;4.35;0.93;;;6.80;99.90;;;;;;5006663;28;20491;-54
2022/12/27 14:35:16;;;;;;;3.20;1.45;;;6.80;99.90;;;;;;5010111;28;20595;-55
2022/12/27 14:38:01;;;;;;;2.72;0.82;;;6.70;99.90;;;;;;5008173;28;20053;-56
2022/12/27 14:40:50;;;;;;;0.73;0.70;;;6.70;99.90;;;;;;5007468;28;20062;-54
2022/12/27 14:43:29;;;;;;;0.95;0.60;;;6.60;99.90;;;;;;5008680;28;20471;-55
2022/12/27 14:46:21;;;;;;;1.92;1.30;;;6.60;99.90;;;;;;5005430;28;20072;-55
2022/12/27 14:49:12;;;;;;;2.28;0.90;;;6.60;99.90;;;;;;5008420;28;20575;-54
2022/12/27 14:52:17;;;;;;;2.20;1.00;;;6.50;99.90;;;;;;5008817;28;20180;-55
2022/12/27 14:55:21;;;;;;;2.13;0.70;;;6.50;99.90;;;;;;5009252;28;20458;-53
2022/12/27 14:57:54;;;;;;;2.40;1.38;;;6.40;99.90;;;;;;5001382;28;20120;-53
2022/12/27 15:00:23;;;;;;;4.57;0.88;;;6.30;99.90;;;;;;5007691;28;20049;-50
2022/12/27 15:03:03;;;;;;;3.25;0.70;;;6.20;99.90;;;;;;5009589;28;20122;-52
2022/12/27 15:06:25;;;;;;;1.88;1.00;;;6.20;99.90;;;;;;5008915;28;20432;-53
2022/12/27 15:09:05;;;;;;;2.10;1.40;;;6.10;99.90;;;;;;5010756;28;20381;-54
2022/12/27 15:11:49;;;;;;;3.35;1.00;;;6.00;99.90;;;;;;5006944;28;20459;-48
2022/12/27 15:14:30;;;;;;;1.83;1.25;;;5.90;99.90;;;;;;5007970;28;20051;-50
2022/12/27 15:16:57;;;;;;;3.63;1.00;;;5.90;99.90;;;;;;5006123;28;20527;-53
2022/12/27 15:19:37;;;;;;;2.38;1.15;;;5.80;99.90;;;;;;5009315;28;20111;-51
2022/12/27 15:22:32;;;;;;;5.68;1.55;;;5.70;99.90;;;;;;5007167;28;20052;-58